sensor_id;sensor_type;location;lat;lon;timestamp;P1;durP1;ratioP1;P2;durP2;ratioP2
46222;SDS011;31943;51.410;7.564;2023-03-01T00:00:08;8.60;;;6.20;;
46222;SDS011;31943;51.410;7.564;2023-03-01T00:02:35;7.07;;;6.30;;
46222;SDS011;31943;51.410;7.564;2023-03-01T00:05:01;7.80;;;6.10;;
46222;SDS011;31943;51.410;7.564;2023-03-01T00:07:29;9.27;;;6.35;;
46222;SDS011;31943;51.410;7.564;2023-03-01T00:09:55;8.25;;;6.00;;
46222;SDS011;31943;51.410;7.564;2023-03-01T00:12:24;7.32;;;5.75;;
46222;SDS011;31943;51.410;7.564;2023-03-01T00:14:50;9.52;;;6.07;;
46222;SDS011;31943;51.410;7.564;2023-03-01T00:17:15;11.10;;;6.43;;
46222;SDS011;31943;51.410;7.564;2023-03-01T00:19:41;7.15;;;5.88;;
46222;SDS011;31943;51.410;7.564;2023-03-01T00:22:07;7.80;;;5.97;;
46222;SDS011;31943;51.410;7.564;2023-03-01T00:24:35;10.50;;;6.38;;
46222;SDS011;31943;51.410;7.564;2023-03-01T00:27:02;8.82;;;6.68;;
46222;SDS011;31943;51.410;7.564;2023-03-01T00:29:29;6.60;;;5.82;;
46222;SDS011;31943;51.410;7.564;2023-03-01T00:31:55;7.93;;;6.40;;
46222;SDS011;31943;51.410;7.564;2023-03-01T00:34:22;7.18;;;6.07;;
46222;SDS011;31943;51.410;7.564;2023-03-01T00:36:48;8.85;;;6.38;;
46222;SDS011;31943;51.410;7.564;2023-03-01T00:39:14;7.50;;;5.82;;
46222;SDS011;31943;51.410;7.564;2023-03-01T00:41:41;9.82;;;6.10;;
46222;SDS011;31943;51.410;7.564;2023-03-01T00:44:07;9.60;;;6.82;;
46222;SDS011;31943;51.410;7.564;2023-03-01T00:46:34;7.95;;;6.10;;
46222;SDS011;31943;51.410;7.564;2023-03-01T00:49:02;9.68;;;6.75;;
46222;SDS011;31943;51.410;7.564;2023-03-01T00:51:28;8.23;;;6.35;;
46222;SDS011;31943;51.410;7.564;2023-03-01T00:53:54;7.50;;;6.22;;
46222;SDS011;31943;51.410;7.564;2023-03-01T00:56:23;7.32;;;5.95;;
46222;SDS011;31943;51.410;7.564;2023-03-01T00:58:50;9.13;;;5.90;;
46222;SDS011;31943;51.410;7.564;2023-03-01T01:01:17;7.90;;;5.97;;
46222;SDS011;31943;51.410;7.564;2023-03-01T01:03:48;7.72;;;6.53;;
46222;SDS011;31943;51.410;7.564;2023-03-01T01:06:16;8.57;;;6.35;;
46222;SDS011;31943;51.410;7.564;2023-03-01T01:08:44;7.65;;;6.68;;
46222;SDS011;31943;51.410;7.564;2023-03-01T01:11:12;8.38;;;6.43;;
46222;SDS011;31943;51.410;7.564;2023-03-01T01:13:37;8.93;;;6.35;;
46222;SDS011;31943;51.410;7.564;2023-03-01T01:16:04;7.95;;;5.97;;
46222;SDS011;31943;51.410;7.564;2023-03-01T01:18:31;7.82;;;5.78;;
46222;SDS011;31943;51.410;7.564;2023-03-01T01:21:02;9.10;;;6.47;;
46222;SDS011;31943;51.410;7.564;2023-03-01T01:23:29;8.85;;;6.32;;
46222;SDS011;31943;51.410;7.564;2023-03-01T01:25:55;9.15;;;6.72;;
46222;SDS011;31943;51.410;7.564;2023-03-01T01:28:20;9.23;;;6.70;;
46222;SDS011;31943;51.410;7.564;2023-03-01T01:30:46;10.55;;;6.70;;
46222;SDS011;31943;51.410;7.564;2023-03-01T01:33:12;7.95;;;6.80;;
46222;SDS011;31943;51.410;7.564;2023-03-01T01:35:37;10.15;;;5.97;;
46222;SDS011;31943;51.410;7.564;2023-03-01T01:38:05;7.57;;;6.53;;
46222;SDS011;31943;51.410;7.564;2023-03-01T01:40:31;9.70;;;7.10;;
46222;SDS011;31943;51.410;7.564;2023-03-01T01:42:57;8.88;;;5.97;;
46222;SDS011;31943;51.410;7.564;2023-03-01T01:45:24;10.20;;;6.47;;
46222;SDS011;31943;51.410;7.564;2023-03-01T01:47:53;9.50;;;6.47;;
46222;SDS011;31943;51.410;7.564;2023-03-01T01:50:22;8.15;;;6.18;;
46222;SDS011;31943;51.410;7.564;2023-03-01T01:52:48;8.48;;;6.43;;
46222;SDS011;31943;51.410;7.564;2023-03-01T01:55:22;8.07;;;6.30;;
46222;SDS011;31943;51.410;7.564;2023-03-01T01:57:51;10.23;;;6.35;;
46222;SDS011;31943;51.410;7.564;2023-03-01T02:00:20;8.18;;;6.38;;
46222;SDS011;31943;51.410;7.564;2023-03-01T02:02:48;8.13;;;6.20;;
46222;SDS011;31943;51.410;7.564;2023-03-01T02:07:50;7.70;;;5.97;;
46222;SDS011;31943;51.410;7.564;2023-03-01T02:10:17;9.02;;;6.57;;
46222;SDS011;31943;51.410;7.564;2023-03-01T02:12:47;8.68;;;6.22;;
46222;SDS011;31943;51.410;7.564;2023-03-01T02:15:13;7.43;;;5.97;;
46222;SDS011;31943;51.410;7.564;2023-03-01T02:17:39;7.35;;;6.32;;
46222;SDS011;31943;51.410;7.564;2023-03-01T02:20:08;8.40;;;6.95;;
46222;SDS011;31943;51.410;7.564;2023-03-01T02:22:40;9.68;;;6.65;;
46222;SDS011;31943;51.410;7.564;2023-03-01T02:25:12;8.70;;;6.82;;
46222;SDS011;31943;51.410;7.564;2023-03-01T02:27:56;7.97;;;6.57;;
46222;SDS011;31943;51.410;7.564;2023-03-01T02:30:32;8.00;;;6.72;;
46222;SDS011;31943;51.410;7.564;2023-03-01T02:32:58;10.05;;;6.75;;
46222;SDS011;31943;51.410;7.564;2023-03-01T02:35:27;8.10;;;6.65;;
46222;SDS011;31943;51.410;7.564;2023-03-01T02:37:55;8.23;;;6.13;;
46222;SDS011;31943;51.410;7.564;2023-03-01T02:40:21;9.10;;;6.60;;
46222;SDS011;31943;51.410;7.564;2023-03-01T02:42:48;9.07;;;7.05;;
46222;SDS011;31943;51.410;7.564;2023-03-01T02:45:17;9.77;;;6.43;;
46222;SDS011;31943;51.410;7.564;2023-03-01T02:47:44;8.40;;;6.53;;
46222;SDS011;31943;51.410;7.564;2023-03-01T02:50:15;8.70;;;6.72;;
46222;SDS011;31943;51.410;7.564;2023-03-01T02:52:52;9.60;;;6.45;;
46222;SDS011;31943;51.410;7.564;2023-03-01T02:55:23;10.48;;;6.95;;
46222;SDS011;31943;51.410;7.564;2023-03-01T02:57:49;8.63;;;7.15;;
46222;SDS011;31943;51.410;7.564;2023-03-01T03:00:15;8.40;;;6.38;;
46222;SDS011;31943;51.410;7.564;2023-03-01T03:02:47;8.30;;;6.57;;
46222;SDS011;31943;51.410;7.564;2023-03-01T03:05:15;11.40;;;6.50;;
46222;SDS011;31943;51.410;7.564;2023-03-01T03:07:43;10.50;;;7.55;;
46222;SDS011;31943;51.410;7.564;2023-03-01T03:10:11;8.15;;;6.68;;
46222;SDS011;31943;51.410;7.564;2023-03-01T03:12:38;8.15;;;6.18;;
46222;SDS011;31943;51.410;7.564;2023-03-01T03:15:05;9.52;;;6.90;;
46222;SDS011;31943;51.410;7.564;2023-03-01T03:17:33;7.10;;;6.30;;
46222;SDS011;31943;51.410;7.564;2023-03-01T03:20:00;7.68;;;5.45;;
46222;SDS011;31943;51.410;7.564;2023-03-01T03:22:26;9.02;;;6.13;;
46222;SDS011;31943;51.410;7.564;2023-03-01T03:24:51;8.07;;;6.38;;
46222;SDS011;31943;51.410;7.564;2023-03-01T03:27:17;8.63;;;6.40;;
46222;SDS011;31943;51.410;7.564;2023-03-01T03:29:44;9.48;;;6.85;;
46222;SDS011;31943;51.410;7.564;2023-03-01T03:32:11;8.70;;;6.72;;
46222;SDS011;31943;51.410;7.564;2023-03-01T03:34:37;9.85;;;6.13;;
46222;SDS011;31943;51.410;7.564;2023-03-01T03:37:04;9.82;;;6.50;;
46222;SDS011;31943;51.410;7.564;2023-03-01T03:39:33;9.00;;;6.43;;
46222;SDS011;31943;51.410;7.564;2023-03-01T03:41:59;8.55;;;6.50;;
46222;SDS011;31943;51.410;7.564;2023-03-01T03:44:25;13.00;;;6.93;;
46222;SDS011;31943;51.410;7.564;2023-03-01T03:46:51;7.55;;;5.95;;
46222;SDS011;31943;51.410;7.564;2023-03-01T03:49:17;10.63;;;7.05;;
46222;SDS011;31943;51.410;7.564;2023-03-01T03:51:44;9.35;;;6.38;;
46222;SDS011;31943;51.410;7.564;2023-03-01T03:54:13;10.15;;;6.90;;
46222;SDS011;31943;51.410;7.564;2023-03-01T03:56:38;8.30;;;6.53;;
46222;SDS011;31943;51.410;7.564;2023-03-01T03:59:04;10.13;;;7.00;;
46222;SDS011;31943;51.410;7.564;2023-03-01T04:01:29;8.98;;;6.80;;
46222;SDS011;31943;51.410;7.564;2023-03-01T04:03:55;9.52;;;6.63;;
46222;SDS011;31943;51.410;7.564;2023-03-01T04:06:21;9.85;;;6.38;;
46222;SDS011;31943;51.410;7.564;2023-03-01T04:08:46;10.27;;;6.25;;
46222;SDS011;31943;51.410;7.564;2023-03-01T04:11:13;9.65;;;6.70;;
46222;SDS011;31943;51.410;7.564;2023-03-01T04:13:39;10.80;;;7.25;;
46222;SDS011;31943;51.410;7.564;2023-03-01T04:16:05;8.95;;;6.53;;
46222;SDS011;31943;51.410;7.564;2023-03-01T04:18:31;9.43;;;7.10;;
46222;SDS011;31943;51.410;7.564;2023-03-01T04:20:57;8.95;;;6.45;;
46222;SDS011;31943;51.410;7.564;2023-03-01T04:23:22;7.80;;;6.68;;
46222;SDS011;31943;51.410;7.564;2023-03-01T04:25:48;8.65;;;6.40;;
46222;SDS011;31943;51.410;7.564;2023-03-01T04:28:17;8.40;;;6.25;;
46222;SDS011;31943;51.410;7.564;2023-03-01T04:30:44;9.63;;;6.47;;
46222;SDS011;31943;51.410;7.564;2023-03-01T04:33:10;8.82;;;7.05;;
46222;SDS011;31943;51.410;7.564;2023-03-01T04:35:36;9.70;;;6.90;;
46222;SDS011;31943;51.410;7.564;2023-03-01T04:38:02;8.88;;;6.63;;
46222;SDS011;31943;51.410;7.564;2023-03-01T04:40:29;10.35;;;6.15;;
46222;SDS011;31943;51.410;7.564;2023-03-01T04:42:54;8.20;;;6.18;;
46222;SDS011;31943;51.410;7.564;2023-03-01T04:45:21;9.57;;;7.32;;
46222;SDS011;31943;51.410;7.564;2023-03-01T04:47:47;8.43;;;7.20;;
46222;SDS011;31943;51.410;7.564;2023-03-01T04:50:14;8.73;;;6.68;;
46222;SDS011;31943;51.410;7.564;2023-03-01T04:52:41;10.07;;;6.72;;
46222;SDS011;31943;51.410;7.564;2023-03-01T04:55:08;9.55;;;7.45;;
46222;SDS011;31943;51.410;7.564;2023-03-01T04:57:35;9.25;;;7.25;;
46222;SDS011;31943;51.410;7.564;2023-03-01T05:00:01;8.77;;;6.53;;
46222;SDS011;31943;51.410;7.564;2023-03-01T05:02:28;8.95;;;6.45;;
46222;SDS011;31943;51.410;7.564;2023-03-01T05:04:54;8.50;;;6.50;;
46222;SDS011;31943;51.410;7.564;2023-03-01T05:07:20;8.57;;;6.38;;
46222;SDS011;31943;51.410;7.564;2023-03-01T05:09:46;8.98;;;6.80;;
46222;SDS011;31943;51.410;7.564;2023-03-01T05:12:13;10.05;;;6.78;;
46222;SDS011;31943;51.410;7.564;2023-03-01T05:14:39;11.57;;;7.32;;
46222;SDS011;31943;51.410;7.564;2023-03-01T05:17:05;11.23;;;6.63;;
46222;SDS011;31943;51.410;7.564;2023-03-01T05:19:33;9.60;;;6.60;;
46222;SDS011;31943;51.410;7.564;2023-03-01T05:21:59;9.50;;;6.78;;
46222;SDS011;31943;51.410;7.564;2023-03-01T05:24:26;9.10;;;7.32;;
46222;SDS011;31943;51.410;7.564;2023-03-01T05:26:52;8.65;;;6.68;;
46222;SDS011;31943;51.410;7.564;2023-03-01T05:29:18;9.85;;;7.28;;
46222;SDS011;31943;51.410;7.564;2023-03-01T05:31:44;10.70;;;7.22;;
46222;SDS011;31943;51.410;7.564;2023-03-01T05:34:10;8.82;;;6.88;;
46222;SDS011;31943;51.410;7.564;2023-03-01T05:36:40;8.77;;;7.07;;
46222;SDS011;31943;51.410;7.564;2023-03-01T05:39:06;10.38;;;7.03;;
46222;SDS011;31943;51.410;7.564;2023-03-01T05:41:31;10.68;;;7.07;;
46222;SDS011;31943;51.410;7.564;2023-03-01T05:43:57;8.10;;;6.68;;
46222;SDS011;31943;51.410;7.564;2023-03-01T05:46:24;10.63;;;7.13;;
46222;SDS011;31943;51.410;7.564;2023-03-01T05:48:50;9.75;;;7.22;;
46222;SDS011;31943;51.410;7.564;2023-03-01T05:51:17;10.00;;;7.55;;
46222;SDS011;31943;51.410;7.564;2023-03-01T05:53:46;10.73;;;7.97;;
46222;SDS011;31943;51.410;7.564;2023-03-01T05:56:13;12.98;;;7.35;;
46222;SDS011;31943;51.410;7.564;2023-03-01T05:58:39;9.60;;;7.10;;
46222;SDS011;31943;51.410;7.564;2023-03-01T06:01:05;10.00;;;7.70;;
46222;SDS011;31943;51.410;7.564;2023-03-01T06:03:30;9.13;;;7.00;;
46222;SDS011;31943;51.410;7.564;2023-03-01T06:05:56;10.23;;;7.35;;
46222;SDS011;31943;51.410;7.564;2023-03-01T06:08:23;11.13;;;7.75;;
46222;SDS011;31943;51.410;7.564;2023-03-01T06:10:50;10.05;;;8.48;;
46222;SDS011;31943;51.410;7.564;2023-03-01T06:13:16;10.55;;;7.88;;
46222;SDS011;31943;51.410;7.564;2023-03-01T06:15:41;10.25;;;7.28;;
46222;SDS011;31943;51.410;7.564;2023-03-01T06:18:08;13.68;;;7.85;;
46222;SDS011;31943;51.410;7.564;2023-03-01T06:20:35;10.15;;;7.57;;
46222;SDS011;31943;51.410;7.564;2023-03-01T06:23:01;10.32;;;7.65;;
46222;SDS011;31943;51.410;7.564;2023-03-01T06:25:26;14.85;;;8.90;;
46222;SDS011;31943;51.410;7.564;2023-03-01T06:27:54;12.85;;;8.35;;
46222;SDS011;31943;51.410;7.564;2023-03-01T06:30:22;11.90;;;7.47;;
46222;SDS011;31943;51.410;7.564;2023-03-01T06:32:49;12.02;;;8.70;;
46222;SDS011;31943;51.410;7.564;2023-03-01T06:35:16;10.45;;;7.68;;
46222;SDS011;31943;51.410;7.564;2023-03-01T06:37:43;10.30;;;8.18;;
46222;SDS011;31943;51.410;7.564;2023-03-01T06:40:09;11.45;;;8.40;;
46222;SDS011;31943;51.410;7.564;2023-03-01T06:42:36;10.75;;;8.13;;
46222;SDS011;31943;51.410;7.564;2023-03-01T06:45:05;10.73;;;8.48;;
46222;SDS011;31943;51.410;7.564;2023-03-01T06:47:32;10.13;;;7.47;;
46222;SDS011;31943;51.410;7.564;2023-03-01T06:49:58;11.18;;;8.30;;
46222;SDS011;31943;51.410;7.564;2023-03-01T06:52:24;13.13;;;9.20;;
46222;SDS011;31943;51.410;7.564;2023-03-01T06:54:50;12.98;;;8.38;;
46222;SDS011;31943;51.410;7.564;2023-03-01T06:57:16;16.25;;;10.13;;
46222;SDS011;31943;51.410;7.564;2023-03-01T06:59:41;18.13;;;11.55;;
46222;SDS011;31943;51.410;7.564;2023-03-01T07:02:10;17.85;;;12.00;;
46222;SDS011;31943;51.410;7.564;2023-03-01T07:04:36;15.85;;;10.57;;
46222;SDS011;31943;51.410;7.564;2023-03-01T07:07:02;17.55;;;11.27;;
46222;SDS011;31943;51.410;7.564;2023-03-01T07:09:27;16.45;;;11.25;;
46222;SDS011;31943;51.410;7.564;2023-03-01T07:11:53;15.48;;;10.32;;
46222;SDS011;31943;51.410;7.564;2023-03-01T07:14:18;17.77;;;10.85;;
46222;SDS011;31943;51.410;7.564;2023-03-01T07:16:44;17.02;;;10.32;;
46222;SDS011;31943;51.410;7.564;2023-03-01T07:19:11;13.55;;;9.88;;
46222;SDS011;31943;51.410;7.564;2023-03-01T07:21:39;18.10;;;11.07;;
46222;SDS011;31943;51.410;7.564;2023-03-01T07:24:05;17.10;;;11.95;;
46222;SDS011;31943;51.410;7.564;2023-03-01T07:26:31;14.82;;;10.55;;
46222;SDS011;31943;51.410;7.564;2023-03-01T07:28:58;16.92;;;12.07;;
46222;SDS011;31943;51.410;7.564;2023-03-01T07:31:24;18.15;;;12.63;;
46222;SDS011;31943;51.410;7.564;2023-03-01T07:33:49;19.13;;;12.02;;
46222;SDS011;31943;51.410;7.564;2023-03-01T07:36:16;17.77;;;12.82;;
46222;SDS011;31943;51.410;7.564;2023-03-01T07:38:42;17.70;;;11.38;;
46222;SDS011;31943;51.410;7.564;2023-03-01T07:41:08;23.70;;;12.05;;
46222;SDS011;31943;51.410;7.564;2023-03-01T07:43:33;16.15;;;11.45;;
46222;SDS011;31943;51.410;7.564;2023-03-01T07:45:59;14.85;;;11.48;;
46222;SDS011;31943;51.410;7.564;2023-03-01T07:48:26;18.35;;;13.30;;
46222;SDS011;31943;51.410;7.564;2023-03-01T07:50:51;18.83;;;12.48;;
46222;SDS011;31943;51.410;7.564;2023-03-01T07:53:18;15.80;;;12.27;;
46222;SDS011;31943;51.410;7.564;2023-03-01T07:55:45;15.80;;;11.25;;
46222;SDS011;31943;51.410;7.564;2023-03-01T07:58:11;18.00;;;13.25;;
46222;SDS011;31943;51.410;7.564;2023-03-01T08:00:36;18.48;;;13.77;;
46222;SDS011;31943;51.410;7.564;2023-03-01T08:03:02;24.38;;;14.52;;
46222;SDS011;31943;51.410;7.564;2023-03-01T08:05:28;21.33;;;15.05;;
46222;SDS011;31943;51.410;7.564;2023-03-01T08:07:54;21.25;;;14.07;;
46222;SDS011;31943;51.410;7.564;2023-03-01T08:10:21;24.75;;;15.52;;
46222;SDS011;31943;51.410;7.564;2023-03-01T08:12:46;26.15;;;14.85;;
46222;SDS011;31943;51.410;7.564;2023-03-01T08:15:12;23.38;;;14.60;;
46222;SDS011;31943;51.410;7.564;2023-03-01T08:17:38;27.08;;;14.98;;
46222;SDS011;31943;51.410;7.564;2023-03-01T08:20:05;24.42;;;14.75;;
46222;SDS011;31943;51.410;7.564;2023-03-01T08:22:32;22.00;;;13.68;;
46222;SDS011;31943;51.410;7.564;2023-03-01T08:24:58;23.05;;;14.45;;
46222;SDS011;31943;51.410;7.564;2023-03-01T08:27:25;23.58;;;13.65;;
46222;SDS011;31943;51.410;7.564;2023-03-01T08:29:51;17.77;;;12.73;;
46222;SDS011;31943;51.410;7.564;2023-03-01T08:32:17;19.55;;;13.32;;
46222;SDS011;31943;51.410;7.564;2023-03-01T08:34:46;17.25;;;12.18;;
46222;SDS011;31943;51.410;7.564;2023-03-01T08:37:11;16.73;;;13.10;;
46222;SDS011;31943;51.410;7.564;2023-03-01T08:39:37;19.65;;;12.45;;
46222;SDS011;31943;51.410;7.564;2023-03-01T08:42:03;22.17;;;14.25;;
46222;SDS011;31943;51.410;7.564;2023-03-01T08:44:30;18.70;;;13.10;;
46222;SDS011;31943;51.410;7.564;2023-03-01T08:46:56;17.52;;;13.50;;
46222;SDS011;31943;51.410;7.564;2023-03-01T08:49:21;20.30;;;14.35;;
46222;SDS011;31943;51.410;7.564;2023-03-01T08:51:47;17.38;;;12.55;;
46222;SDS011;31943;51.410;7.564;2023-03-01T08:54:15;16.25;;;13.02;;
46222;SDS011;31943;51.410;7.564;2023-03-01T08:56:42;17.98;;;12.65;;
46222;SDS011;31943;51.410;7.564;2023-03-01T08:59:09;17.95;;;13.13;;
46222;SDS011;31943;51.410;7.564;2023-03-01T09:01:37;16.50;;;12.10;;
46222;SDS011;31943;51.410;7.564;2023-03-01T09:04:02;16.30;;;12.00;;
46222;SDS011;31943;51.410;7.564;2023-03-01T09:06:30;15.05;;;10.07;;
46222;SDS011;31943;51.410;7.564;2023-03-01T09:08:56;15.45;;;10.13;;
46222;SDS011;31943;51.410;7.564;2023-03-01T09:11:21;12.88;;;8.95;;
46222;SDS011;31943;51.410;7.564;2023-03-01T09:13:48;10.93;;;8.77;;
46222;SDS011;31943;51.410;7.564;2023-03-01T09:16:17;11.20;;;7.78;;
46222;SDS011;31943;51.410;7.564;2023-03-01T09:18:48;13.88;;;8.32;;
46222;SDS011;31943;51.410;7.564;2023-03-01T09:21:15;11.93;;;7.43;;
46222;SDS011;31943;51.410;7.564;2023-03-01T09:23:42;11.52;;;7.80;;
46222;SDS011;31943;51.410;7.564;2023-03-01T09:26:09;10.00;;;6.82;;
46222;SDS011;31943;51.410;7.564;2023-03-01T09:28:36;9.57;;;7.30;;
46222;SDS011;31943;51.410;7.564;2023-03-01T09:31:03;9.23;;;6.75;;
46222;SDS011;31943;51.410;7.564;2023-03-01T09:33:30;8.82;;;6.95;;
46222;SDS011;31943;51.410;7.564;2023-03-01T09:35:58;11.70;;;7.30;;
46222;SDS011;31943;51.410;7.564;2023-03-01T09:38:25;8.30;;;6.70;;
46222;SDS011;31943;51.410;7.564;2023-03-01T09:40:51;11.52;;;7.13;;
46222;SDS011;31943;51.410;7.564;2023-03-01T09:43:18;9.13;;;6.25;;
46222;SDS011;31943;51.410;7.564;2023-03-01T09:45:50;9.95;;;6.30;;
46222;SDS011;31943;51.410;7.564;2023-03-01T09:48:21;8.98;;;6.05;;
46222;SDS011;31943;51.410;7.564;2023-03-01T09:50:51;9.60;;;6.63;;
46222;SDS011;31943;51.410;7.564;2023-03-01T09:53:19;9.40;;;6.20;;
46222;SDS011;31943;51.410;7.564;2023-03-01T09:55:48;9.45;;;6.47;;
46222;SDS011;31943;51.410;7.564;2023-03-01T09:58:31;8.13;;;6.43;;
46222;SDS011;31943;51.410;7.564;2023-03-01T10:01:23;8.25;;;6.68;;
46222;SDS011;31943;51.410;7.564;2023-03-01T10:03:59;8.73;;;6.60;;
46222;SDS011;31943;51.410;7.564;2023-03-01T10:06:33;9.13;;;6.18;;
46222;SDS011;31943;51.410;7.564;2023-03-01T10:09:02;8.43;;;5.72;;
46222;SDS011;31943;51.410;7.564;2023-03-01T10:11:34;8.90;;;7.10;;
46222;SDS011;31943;51.410;7.564;2023-03-01T10:14:03;9.25;;;6.45;;
46222;SDS011;31943;51.410;7.564;2023-03-01T10:16:38;8.25;;;6.93;;
46222;SDS011;31943;51.410;7.564;2023-03-01T10:19:08;9.48;;;6.90;;
46222;SDS011;31943;51.410;7.564;2023-03-01T10:21:43;9.45;;;6.70;;
46222;SDS011;31943;51.410;7.564;2023-03-01T10:24:13;8.38;;;6.40;;
46222;SDS011;31943;51.410;7.564;2023-03-01T10:26:44;9.00;;;6.15;;
46222;SDS011;31943;51.410;7.564;2023-03-01T10:29:18;7.90;;;5.80;;
46222;SDS011;31943;51.410;7.564;2023-03-01T10:31:49;10.13;;;6.28;;
46222;SDS011;31943;51.410;7.564;2023-03-01T10:34:18;10.02;;;6.38;;
46222;SDS011;31943;51.410;7.564;2023-03-01T10:36:47;10.05;;;6.78;;
46222;SDS011;31943;51.410;7.564;2023-03-01T10:39:17;12.32;;;6.47;;
46222;SDS011;31943;51.410;7.564;2023-03-01T10:41:51;7.93;;;6.28;;
46222;SDS011;31943;51.410;7.564;2023-03-01T10:44:34;12.30;;;7.93;;
46222;SDS011;31943;51.410;7.564;2023-03-01T10:47:04;11.55;;;6.90;;
46222;SDS011;31943;51.410;7.564;2023-03-01T10:49:29;9.43;;;6.53;;
46222;SDS011;31943;51.410;7.564;2023-03-01T10:51:56;9.00;;;5.80;;
46222;SDS011;31943;51.410;7.564;2023-03-01T10:54:44;12.77;;;6.32;;
46222;SDS011;31943;51.410;7.564;2023-03-01T10:57:24;15.23;;;9.25;;
46222;SDS011;31943;51.410;7.564;2023-03-01T11:00:00;9.60;;;6.82;;
46222;SDS011;31943;51.410;7.564;2023-03-01T11:02:28;10.10;;;7.82;;
46222;SDS011;31943;51.410;7.564;2023-03-01T11:04:56;7.50;;;6.15;;
46222;SDS011;31943;51.410;7.564;2023-03-01T11:07:23;17.13;;;10.38;;
46222;SDS011;31943;51.410;7.564;2023-03-01T11:09:51;10.90;;;7.65;;
46222;SDS011;31943;51.410;7.564;2023-03-01T11:12:18;11.35;;;7.38;;
46222;SDS011;31943;51.410;7.564;2023-03-01T11:14:46;16.05;;;9.18;;
46222;SDS011;31943;51.410;7.564;2023-03-01T11:17:15;11.27;;;8.27;;
46222;SDS011;31943;51.410;7.564;2023-03-01T11:19:49;11.40;;;8.35;;
46222;SDS011;31943;51.410;7.564;2023-03-01T11:22:25;11.82;;;8.95;;
46222;SDS011;31943;51.410;7.564;2023-03-01T11:24:53;11.77;;;7.47;;
46222;SDS011;31943;51.410;7.564;2023-03-01T11:27:21;15.02;;;10.82;;
46222;SDS011;31943;51.410;7.564;2023-03-01T11:29:51;13.23;;;9.18;;
46222;SDS011;31943;51.410;7.564;2023-03-01T11:32:21;15.80;;;11.23;;
46222;SDS011;31943;51.410;7.564;2023-03-01T11:34:55;11.02;;;7.22;;
46222;SDS011;31943;51.410;7.564;2023-03-01T11:37:31;12.70;;;7.55;;
46222;SDS011;31943;51.410;7.564;2023-03-01T11:40:14;10.65;;;7.68;;
46222;SDS011;31943;51.410;7.564;2023-03-01T11:42:48;10.57;;;9.35;;
46222;SDS011;31943;51.410;7.564;2023-03-01T11:45:22;11.02;;;7.75;;
46222;SDS011;31943;51.410;7.564;2023-03-01T11:48:01;9.65;;;7.05;;
46222;SDS011;31943;51.410;7.564;2023-03-01T11:50:40;9.80;;;7.78;;
46222;SDS011;31943;51.410;7.564;2023-03-01T11:53:31;9.55;;;7.60;;
46222;SDS011;31943;51.410;7.564;2023-03-01T11:56:14;11.73;;;7.85;;
46222;SDS011;31943;51.410;7.564;2023-03-01T12:01:32;11.63;;;7.43;;
46222;SDS011;31943;51.410;7.564;2023-03-01T12:04:17;11.10;;;7.88;;
46222;SDS011;31943;51.410;7.564;2023-03-01T12:07:07;11.25;;;8.23;;
46222;SDS011;31943;51.410;7.564;2023-03-01T12:09:46;12.65;;;6.93;;
46222;SDS011;31943;51.410;7.564;2023-03-01T12:15:30;13.68;;;10.52;;
46222;SDS011;31943;51.410;7.564;2023-03-01T12:21:05;10.80;;;8.23;;
46222;SDS011;31943;51.410;7.564;2023-03-01T12:26:55;11.63;;;7.00;;
46222;SDS011;31943;51.410;7.564;2023-03-01T12:29:38;9.80;;;7.00;;
46222;SDS011;31943;51.410;7.564;2023-03-01T12:35:03;10.95;;;7.05;;
46222;SDS011;31943;51.410;7.564;2023-03-01T12:37:44;10.13;;;6.60;;
46222;SDS011;31943;51.410;7.564;2023-03-01T12:40:23;13.07;;;7.55;;
46222;SDS011;31943;51.410;7.564;2023-03-01T12:43:05;9.77;;;7.03;;
46222;SDS011;31943;51.410;7.564;2023-03-01T12:45:46;8.68;;;6.80;;
46222;SDS011;31943;51.410;7.564;2023-03-01T12:48:24;10.95;;;7.47;;
46222;SDS011;31943;51.410;7.564;2023-03-01T12:51:02;7.65;;;6.18;;
46222;SDS011;31943;51.410;7.564;2023-03-01T12:53:32;11.10;;;7.05;;
46222;SDS011;31943;51.410;7.564;2023-03-01T12:56:01;13.20;;;7.47;;
46222;SDS011;31943;51.410;7.564;2023-03-01T12:58:32;8.85;;;6.97;;
46222;SDS011;31943;51.410;7.564;2023-03-01T13:01:04;9.77;;;6.57;;
46222;SDS011;31943;51.410;7.564;2023-03-01T13:03:52;11.55;;;6.82;;
46222;SDS011;31943;51.410;7.564;2023-03-01T13:06:29;13.80;;;7.55;;
46222;SDS011;31943;51.410;7.564;2023-03-01T13:09:03;9.63;;;6.55;;
46222;SDS011;31943;51.410;7.564;2023-03-01T13:11:36;10.50;;;6.32;;
46222;SDS011;31943;51.410;7.564;2023-03-01T13:17:20;10.50;;;7.43;;
46222;SDS011;31943;51.410;7.564;2023-03-01T13:19:56;7.45;;;6.32;;
46222;SDS011;31943;51.410;7.564;2023-03-01T13:22:27;9.60;;;6.07;;
46222;SDS011;31943;51.410;7.564;2023-03-01T13:25:00;7.47;;;5.85;;
46222;SDS011;31943;51.410;7.564;2023-03-01T13:29:53;10.18;;;6.43;;
46222;SDS011;31943;51.410;7.564;2023-03-01T13:32:24;10.10;;;5.88;;
46222;SDS011;31943;51.410;7.564;2023-03-01T13:34:57;8.02;;;6.00;;
46222;SDS011;31943;51.410;7.564;2023-03-01T13:37:28;9.00;;;5.97;;
46222;SDS011;31943;51.410;7.564;2023-03-01T13:40:00;9.63;;;5.57;;
46222;SDS011;31943;51.410;7.564;2023-03-01T13:42:40;8.02;;;5.47;;
46222;SDS011;31943;51.410;7.564;2023-03-01T13:45:16;9.40;;;5.93;;
46222;SDS011;31943;51.410;7.564;2023-03-01T13:47:50;6.90;;;4.95;;
46222;SDS011;31943;51.410;7.564;2023-03-01T13:50:20;7.45;;;4.90;;
46222;SDS011;31943;51.410;7.564;2023-03-01T13:52:50;7.82;;;5.20;;
46222;SDS011;31943;51.410;7.564;2023-03-01T13:55:19;7.13;;;5.25;;
46222;SDS011;31943;51.410;7.564;2023-03-01T13:57:48;8.98;;;5.43;;
46222;SDS011;31943;51.410;7.564;2023-03-01T14:00:27;6.70;;;5.00;;
46222;SDS011;31943;51.410;7.564;2023-03-01T14:05:44;8.90;;;5.30;;
46222;SDS011;31943;51.410;7.564;2023-03-01T14:08:25;7.20;;;4.88;;
46222;SDS011;31943;51.410;7.564;2023-03-01T14:10:54;7.43;;;5.43;;
46222;SDS011;31943;51.410;7.564;2023-03-01T14:13:37;7.10;;;5.22;;
46222;SDS011;31943;51.410;7.564;2023-03-01T14:16:17;7.32;;;5.07;;
46222;SDS011;31943;51.410;7.564;2023-03-01T14:18:57;8.45;;;5.13;;
46222;SDS011;31943;51.410;7.564;2023-03-01T14:21:35;6.93;;;5.25;;
46222;SDS011;31943;51.410;7.564;2023-03-01T14:24:01;7.15;;;4.95;;
46222;SDS011;31943;51.410;7.564;2023-03-01T14:26:26;8.88;;;5.45;;
46222;SDS011;31943;51.410;7.564;2023-03-01T14:28:52;8.88;;;5.35;;
46222;SDS011;31943;51.410;7.564;2023-03-01T14:31:31;7.93;;;6.15;;
46222;SDS011;31943;51.410;7.564;2023-03-01T14:34:04;6.97;;;5.28;;
46222;SDS011;31943;51.410;7.564;2023-03-01T14:36:30;7.38;;;5.40;;
46222;SDS011;31943;51.410;7.564;2023-03-01T14:38:58;10.95;;;5.82;;
46222;SDS011;31943;51.410;7.564;2023-03-01T14:41:27;7.30;;;5.43;;
46222;SDS011;31943;51.410;7.564;2023-03-01T14:43:55;8.68;;;5.32;;
46222;SDS011;31943;51.410;7.564;2023-03-01T14:46:23;8.77;;;5.47;;
46222;SDS011;31943;51.410;7.564;2023-03-01T14:48:52;8.23;;;5.28;;
46222;SDS011;31943;51.410;7.564;2023-03-01T14:51:22;9.30;;;5.32;;
46222;SDS011;31943;51.410;7.564;2023-03-01T14:53:48;6.82;;;5.15;;
46222;SDS011;31943;51.410;7.564;2023-03-01T14:56:16;10.13;;;6.38;;
46222;SDS011;31943;51.410;7.564;2023-03-01T14:58:42;8.55;;;6.05;;
46222;SDS011;31943;51.410;7.564;2023-03-01T15:01:10;6.45;;;5.18;;
46222;SDS011;31943;51.410;7.564;2023-03-01T15:03:41;9.73;;;5.95;;
46222;SDS011;31943;51.410;7.564;2023-03-01T15:06:07;8.35;;;5.15;;
46222;SDS011;31943;51.410;7.564;2023-03-01T15:08:35;7.15;;;5.13;;
46222;SDS011;31943;51.410;7.564;2023-03-01T15:11:16;7.35;;;5.30;;
46222;SDS011;31943;51.410;7.564;2023-03-01T15:13:45;9.55;;;5.88;;
46222;SDS011;31943;51.410;7.564;2023-03-01T15:16:11;9.68;;;5.50;;